Time;durP1;ratioP1;P1;durP2;ratioP2;P2;SDS_P1;SDS_P2;PMS_P1;PMS_P2;Temp;Humidity;BMP_temperature;BMP_pressure;BME280_temperature;BME280_humidity;BME280_pressure;Samples;Min_cycle;Max_cycle;Signal;HPM_P1;HPM_P2
2021/08/11 00:00:24;;;;;;;4.32;2.80;;;;;;;17.56;85.29;96517.53;5282760;56;20216;-75
2021/08/11 00:05:27;;;;;;;4.18;2.97;;;;;;;17.44;85.45;96499.16;5282319;56;20111;-75
2021/08/11 00:10:29;;;;;;;4.38;2.70;;;;;;;17.49;85.20;96506.81;5282380;56;20191;-75
2021/08/11 00:15:32;;;;;;;3.67;2.75;;;;;;;17.69;84.45;96521.38;5280832;56;20733;-75
2021/08/11 00:20:35;;;;;;;4.35;2.85;;;;;;;17.60;84.70;96523.63;5282095;56;20116;-74
2021/08/11 00:25:37;;;;;;;5.38;2.88;;;;;;;17.65;84.93;96531.28;5282820;56;20871;-75
2021/08/11 00:30:40;;;;;;;3.13;2.83;;;;;;;17.64;84.92;96526.97;5286046;56;20137;-75
2021/08/11 00:35:43;;;;;;;3.88;3.50;;;;;;;17.57;85.01;96524.66;5286127;56;20115;-75
2021/08/11 00:40:46;;;;;;;2.55;2.40;;;;;;;17.46;85.37;96530.19;5285506;55;20129;-75
2021/08/11 00:45:48;;;;;;;3.47;2.72;;;;;;;17.57;85.21;96544.22;5283767;56;20128;-76
2021/08/11 00:50:51;;;;;;;4.93;3.03;;;;;;;17.73;84.84;96543.50;5283512;56;20133;-75
2021/08/11 00:55:57;;;;;;;5.63;2.67;;;;;;;17.74;85.04;96547.81;5284070;56;20124;-74
2021/08/11 01:01:01;;;;;;;2.55;2.28;;;;;;;17.68;85.27;96542.22;5293336;55;20128;-74
2021/08/11 01:06:06;;;;;;;4.10;2.88;;;;;;;17.59;85.29;96536.09;5286851;56;20557;-75
2021/08/11 01:11:10;;;;;;;3.72;2.83;;;;;;;17.50;85.55;96530.69;5285802;56;20722;-75
2021/08/11 01:16:12;;;;;;;3.53;2.97;;;;;;;17.43;85.79;96540.31;5285697;56;20133;-75
2021/08/11 01:21:25;;;;;;;3.67;3.10;;;;;;;17.47;85.30;96549.22;5286378;56;20135;-75
2021/08/11 01:26:59;;;;;;;5.28;2.75;;;;;;;17.46;85.42;96556.06;5307815;56;20278;-74
2021/08/11 01:32:19;;;;;;;6.30;2.95;;;;;;;17.40;85.66;96565.69;5290691;56;20120;-75
2021/08/11 01:37:28;;;;;;;2.78;2.58;;;;;;;17.28;85.95;96555.75;5286140;56;20129;-75
2021/08/11 01:42:36;;;;;;;3.33;2.90;;;;;;;17.28;85.53;96550.16;5286441;56;20106;-75
2021/08/11 01:48:10;;;;;;;2.88;2.67;;;;;;;17.15;85.42;96548.59;5286610;55;20119;-75
2021/08/11 01:53:18;;;;;;;3.95;3.00;;;;;;;16.96;86.62;96547.44;5287143;55;20102;-75
2021/08/11 01:58:23;;;;;;;10.23;3.60;;;;;;;16.93;87.01;96540.09;5286212;56;20111;-75
2021/08/11 02:03:25;;;;;;;4.18;2.70;;;;;;;16.86;86.92;96537.75;5287272;55;20119;-75
2021/08/11 02:08:30;;;;;;;3.65;2.85;;;;;;;16.93;87.45;96550.50;5289908;55;20694;-75
2021/08/11 02:13:32;;;;;;;4.57;2.85;;;;;;;16.88;87.20;96545.63;5288604;56;20673;-74
2021/08/11 02:18:36;;;;;;;11.38;3.00;;;;;;;16.97;85.83;96549.00;5287909;55;20584;-74
2021/08/11 02:23:40;;;;;;;5.65;3.22;;;;;;;16.86;86.72;96546.13;5285064;55;20124;-74
2021/08/11 02:28:53;;;;;;;4.30;3.05;;;;;;;16.72;86.72;96540.72;5284424;56;20137;-75
2021/08/11 02:34:03;;;;;;;3.90;3.13;;;;;;;16.66;87.14;96543.47;5284617;55;20634;-75
2021/08/11 02:39:11;;;;;;;2.90;2.70;;;;;;;16.53;87.70;96537.56;5284161;56;20124;-75
2021/08/11 02:44:18;;;;;;;3.40;3.00;;;;;;;16.70;86.94;96555.16;5285196;56;20111;-75
2021/08/11 02:49:29;;;;;;;7.80;2.65;;;;;;;16.60;87.31;96556.59;5283814;55;20123;-75
2021/08/11 02:54:32;;;;;;;3.03;2.80;;;;;;;16.64;87.41;96551.56;5283632;56;20119;-74
2021/08/11 02:59:36;;;;;;;6.10;2.92;;;;;;;16.83;87.79;96551.94;5284075;56;20129;-75
2021/08/11 03:04:40;;;;;;;3.78;2.97;;;;;;;16.88;87.61;96546.41;5283861;55;20146;-74
2021/08/11 03:09:42;;;;;;;3.35;2.75;;;;;;;17.00;87.05;96548.00;5294883;44;20100;-74
2021/08/11 03:14:48;;;;;;;3.42;3.13;;;;;;;17.12;87.46;96555.16;5283180;56;20133;-75
2021/08/11 03:19:50;;;;;;;4.53;2.90;;;;;;;17.17;87.35;96548.06;5286096;55;20212;-76
2021/08/11 03:24:54;;;;;;;3.00;2.72;;;;;;;17.16;87.54;96550.09;5305019;55;20119;-76
2021/08/11 03:29:56;;;;;;;4.35;3.05;;;;;;;17.15;87.18;96543.00;5305208;55;20141;-75
2021/08/11 03:34:59;;;;;;;4.65;3.13;;;;;;;17.21;87.23;96543.78;5304745;55;20321;-76
2021/08/11 03:40:01;;;;;;;7.15;3.30;;;;;;;17.32;86.59;96536.72;5304543;56;20650;-77
2021/08/11 03:45:05;;;;;;;4.35;2.92;;;;;;;17.30;86.63;96544.84;5304392;55;20225;-76
2021/08/11 03:50:12;;;;;;;6.25;3.55;;;;;;;17.17;87.79;96537.66;5304381;55;20140;-76
2021/08/11 03:55:14;;;;;;;3.60;3.13;;;;;;;17.30;86.49;96548.38;5304630;55;20110;-76
2021/08/11 04:00:17;;;;;;;6.70;3.33;;;;;;;17.11;86.47;96547.28;5304377;55;20132;-74
2021/08/11 04:05:19;;;;;;;3.50;3.20;;;;;;;16.85;86.97;96549.41;5307048;55;20132;-76
2021/08/11 04:10:21;;;;;;;6.10;3.15;;;;;;;16.78;87.98;96559.00;5307652;55;20132;-76
2021/08/11 04:15:24;;;;;;;4.38;2.90;;;;;;;16.86;87.96;96560.09;5306810;55;20105;-76
2021/08/11 04:20:26;;;;;;;5.05;3.10;;;;;;;16.96;87.58;96563.47;5307544;55;20110;-76
2021/08/11 04:25:28;;;;;;;3.42;3.13;;;;;;;16.70;88.07;96548.81;5307646;55;20198;-76
2021/08/11 04:30:31;;;;;;;4.78;3.10;;;;;;;16.76;87.86;96553.16;5307376;55;20137;-76
2021/08/11 04:35:36;;;;;;;4.38;3.20;;;;;;;16.75;88.41;96556.47;5307314;55;20132;-75
2021/08/11 04:40:39;;;;;;;5.07;3.08;;;;;;;16.79;88.40;96559.78;5307243;55;20133;-76
2021/08/11 04:45:42;;;;;;;3.33;3.03;;;;;;;16.87;88.04;96566.44;5307302;55;20118;-77
2021/08/11 04:50:44;;;;;;;3.15;2.70;;;;;;;16.89;87.50;96556.28;5306321;55;20163;-76
2021/08/11 04:55:48;;;;;;;5.75;3.75;;;;;;;16.91;87.71;96576.13;5310066;55;20128;-78
2021/08/11 05:00:51;;;;;;;4.25;2.97;;;;;;;16.94;87.70;96566.72;5311000;55;20144;-77
2021/08/11 05:05:54;;;;;;;8.02;3.55;;;;;;;17.05;87.52;96568.84;5327947;55;20123;-78
2021/08/11 05:10:56;;;;;;;4.75;3.25;;;;;;;17.07;87.06;96577.47;5332955;55;20123;-78
2021/08/11 05:15:58;;;;;;;6.80;3.38;;;;;;;17.22;86.98;96572.47;5307020;55;20128;-78
2021/08/11 05:21:01;;;;;;;4.35;3.50;;;;;;;17.30;87.00;96567.19;5307219;55;20681;-78
2021/08/11 05:26:04;;;;;;;4.80;3.55;;;;;;;17.43;87.39;96581.47;5306712;55;20917;-76
2021/08/11 05:31:06;;;;;;;6.05;3.15;;;;;;;17.49;87.48;96571.06;5306585;55;20132;-79
2021/08/11 05:36:09;;;;;;;6.72;3.47;;;;;;;17.61;86.81;96573.44;5305709;55;20119;-78
2021/08/11 05:41:11;;;;;;;4.18;3.13;;;;;;;17.70;85.71;96575.25;5307424;55;20123;-78
2021/08/11 05:46:14;;;;;;;4.47;3.80;;;;;;;18.14;84.19;96569.75;5309099;55;20123;-78
2021/08/11 05:51:17;;;;;;;6.70;3.58;;;;;;;18.33;84.17;96575.63;5308864;55;20123;-79
2021/08/11 05:56:20;;;;;;;4.80;3.63;;;;;;;18.55;84.16;96581.25;5308388;55;20141;-78
2021/08/11 06:01:26;;;;;;;15.32;4.85;;;;;;;18.80;85.20;96585.81;5308067;55;20118;-79
2021/08/11 06:06:29;;;;;;;5.70;3.97;;;;;;;18.96;83.91;96592.69;5308956;55;20199;-78
2021/08/11 06:11:31;;;;;;;6.05;3.90;;;;;;;19.20;80.86;96590.09;5309469;55;20110;-78
2021/08/11 06:16:34;;;;;;;3.92;3.05;;;;;;;19.38;80.32;96592.34;5307849;55;20110;-76
2021/08/11 06:21:37;;;;;;;6.22;3.60;;;;;;;19.56;80.19;96591.78;5306662;55;20665;-76
2021/08/11 06:26:39;;;;;;;5.53;3.63;;;;;;;19.67;79.72;96591.00;5306778;55;20588;-78
2021/08/11 06:31:41;;;;;;;4.95;3.58;;;;;;;19.92;78.64;96584.25;5313363;55;20128;-79
2021/08/11 06:36:44;;;;;;;4.55;3.35;;;;;;;20.27;76.02;96591.94;5316396;55;20132;-78
2021/08/11 06:41:46;;;;;;;5.95;3.00;;;;;;;20.43;76.04;96588.28;5313419;55;20578;-77
2021/08/11 06:46:48;;;;;;;2.90;2.70;;;;;;;20.61;75.32;96577.16;5309646;55;20231;-79
2021/08/11 06:51:51;;;;;;;2.90;2.55;;;;;;;20.99;69.38;96589.31;5309218;55;20113;-79
2021/08/11 06:56:54;;;;;;;2.53;2.30;;;;;;;21.29;62.73;96595.72;5311518;55;20110;-79
2021/08/11 07:01:57;;;;;;;2.92;2.50;;;;;;;21.49;63.18;96591.66;5306455;55;20706;-78
2021/08/11 07:06:59;;;;;;;2.83;2.30;;;;;;;21.48;65.14;96598.56;5302401;55;20199;-78
2021/08/11 07:12:03;;;;;;;4.13;3.05;;;;;;;21.85;63.29;96595.06;5306818;55;20141;-78
2021/08/11 07:17:06;;;;;;;5.05;2.28;;;;;;;22.01;60.37;96600.50;5299602;55;21038;-78
2021/08/11 07:22:09;;;;;;;3.65;2.67;;;;;;;22.21;63.12;96610.44;5301891;55;20110;-77
2021/08/11 07:27:11;;;;;;;2.60;2.40;;;;;;;22.36;58.88;96612.81;5303860;55;20136;-78
2021/08/11 07:32:14;;;;;;;2.30;2.10;;;;;;;22.51;60.22;96601.81;5303394;55;20115;-77
2021/08/11 07:37:17;;;;;;;5.75;2.47;;;;;;;22.69;60.58;96604.63;5304585;55;20097;-78
2021/08/11 07:42:20;;;;;;;2.58;2.38;;;;;;;23.07;58.47;96598.91;5287308;55;20120;-79
2021/08/11 07:47:22;;;;;;;4.10;2.22;;;;;;;23.21;57.49;96604.00;5288778;56;20140;-79
2021/08/11 07:52:24;;;;;;;2.13;1.92;;;;;;;23.44;55.36;96596.69;5293086;56;20110;-79
2021/08/11 07:57:27;;;;;;;3.90;2.20;;;;;;;23.57;55.12;96601.56;5308206;56;20135;-79
2021/08/11 08:02:29;;;;;;;2.00;1.80;;;;;;;23.92;54.44;96597.53;5308468;55;20710;-79
2021/08/11 08:07:32;;;;;;;1.60;1.50;;;;;;;24.23;54.05;96597.38;5308962;56;20654;-78
2021/08/11 08:12:34;;;;;;;1.95;1.60;;;;;;;24.51;53.23;96599.59;5305374;55;20883;-77
2021/08/11 08:17:37;;;;;;;2.03;1.85;;;;;;;25.06;54.18;96605.97;5303786;55;20667;-77
2021/08/11 08:22:49;;;;;;;2.13;1.58;;;;;;;26.20;48.70;96610.34;5293637;55;20688;-77
2021/08/11 08:27:53;;;;;;;1.60;1.50;;;;;;;27.14;45.10;96613.03;5297856;56;20672;-77
2021/08/11 08:33:16;;;;;;;1.83;1.30;;;;;;;27.44;44.89;96606.63;5305510;56;20126;-78
2021/08/11 08:38:19;;;;;;;1.65;1.50;;;;;;;27.82;45.23;96612.97;5305104;55;20111;-78
2021/08/11 08:43:41;;;;;;;2.53;1.30;;;;;;;28.05;43.71;96610.88;5300690;56;20212;-79
2021/08/11 08:48:44;;;;;;;4.03;1.60;;;;;;;28.76;41.23;96600.91;5303994;55;20122;-79
2021/08/11 08:53:46;;;;;;;3.47;1.33;;;;;;;29.29;41.65;96611.19;5307785;55;20963;-79
2021/08/11 08:58:49;;;;;;;2.70;1.40;;;;;;;29.16;40.68;96597.97;5311574;55;20153;-78
2021/08/11 09:03:51;;;;;;;2.13;1.50;;;;;;;28.92;40.44;96595.88;5307981;55;20101;-76
2021/08/11 09:09:03;;;;;;;1.70;1.60;;;;;;;29.97;38.96;96602.75;5305285;55;20119;-79
2021/08/11 09:14:25;;;;;;;1.73;1.63;;;;;;;30.69;38.41;96605.09;5313675;55;20114;-80
2021/08/11 09:19:42;;;;;;;2.63;1.60;;;;;;;30.39;40.41;96596.97;5318491;55;20124;-79
2021/08/11 09:24:44;;;;;;;3.05;1.83;;;;;;;30.16;40.89;96602.16;5301277;55;21454;-79
2021/08/11 09:30:06;;;;;;;1.52;1.40;;;;;;;30.77;37.30;96593.59;5307995;55;20214;-79
2021/08/11 09:35:08;;;;;;;3.35;1.60;;;;;;;31.53;35.85;96596.78;5308948;55;20118;-79
2021/08/11 09:40:18;;;;;;;2.03;1.80;;;;;;;29.39;38.77;96592.88;5309426;55;20109;-79
2021/08/11 09:45:21;;;;;;;2.20;1.80;;;;;;;29.96;37.24;96597.66;5308010;55;20136;-79
2021/08/11 09:50:34;;;;;;;2.05;1.67;;;;;;;31.57;35.25;96593.50;5310574;55;20127;-78
2021/08/11 09:56:04;;;;;;;1.98;1.80;;;;;;;30.83;35.27;96594.06;5312128;55;20110;-78
2021/08/11 10:01:24;;;;;;;4.32;1.73;;;;;;;30.92;35.43;96588.44;5311644;55;20716;-81
2021/08/11 10:06:35;;;;;;;1.90;1.80;;;;;;;30.97;35.79;96584.56;5310450;55;20176;-81
2021/08/11 10:11:40;;;;;;;2.53;1.95;;;;;;;31.93;37.57;96584.09;5308571;55;20121;-79
2021/08/11 10:16:43;;;;;;;2.45;1.80;;;;;;;32.35;35.81;96588.00;5316609;55;20220;-77
2021/08/11 10:22:08;;;;;;;4.13;2.33;;;;;;;31.40;38.14;96590.72;5297334;55;20102;-80
2021/08/11 10:27:14;;;;;;;2.00;1.90;;;;;;;31.00;36.26;96574.81;5287323;55;20651;-78
2021/08/11 10:32:16;;;;;;;3.35;2.00;;;;;;;32.46;33.40;96573.09;5287208;55;20123;-80
2021/08/11 10:37:21;;;;;;;2.00;1.90;;;;;;;32.14;35.46;96576.44;5287105;55;20129;-81
2021/08/11 10:42:23;;;;;;;4.20;2.10;;;;;;;32.19;37.08;96572.53;5286975;55;20107;-81
2021/08/11 10:47:30;;;;;;;3.65;2.17;;;;;;;33.03;33.83;96563.66;5299367;55;20114;-82
2021/08/11 10:52:33;;;;;;;4.13;2.00;;;;;;;31.88;33.64;96560.16;5305637;55;20107;-81
2021/08/11 10:57:40;;;;;;;2.03;1.92;;;;;;;32.55;34.98;96558.03;5308225;55;20154;-80
2021/08/11 11:02:44;;;;;;;2.35;2.15;;;;;;;32.39;37.56;96568.28;5306758;55;20555;-81
2021/08/11 11:08:05;;;;;;;4.30;2.10;;;;;;;32.06;36.07;96572.97;5307065;55;20716;-82
2021/08/11 11:13:23;;;;;;;4.47;2.20;;;;;;;32.11;36.33;96571.94;5305701;55;20141;-81
2021/08/11 11:18:25;;;;;;;2.38;2.17;;;;;;;32.64;36.83;96562.22;5304259;55;20119;-79
2021/08/11 11:23:39;;;;;;;2.58;2.30;;;;;;;33.14;32.29;96565.09;5305715;55;20109;-80
2021/08/11 11:29:07;;;;;;;7.20;2.53;;;;;;;33.07;35.29;96555.34;5306092;55;20680;-82
2021/08/11 11:34:21;;;;;;;3.03;2.72;;;;;;;31.94;34.31;96552.03;5306751;55;20185;-78
2021/08/11 11:39:31;;;;;;;3.83;2.67;;;;;;;32.58;37.79;96546.75;5297502;56;20101;-79
2021/08/11 11:45:07;;;;;;;2.92;2.55;;;;;;;33.56;34.40;96553.72;5303709;55;20552;-79
2021/08/11 11:55:31;;;;;;;4.90;3.20;;;;;;;31.88;33.67;96551.59;5322085;56;20346;-83
2021/08/11 12:00:34;;;;;;;3.22;2.90;;;;;;;31.07;35.00;96553.19;5331419;55;20092;-79
2021/08/11 12:05:47;;;;;;;8.10;3.05;;;;;;;31.89;37.99;96545.25;5310029;55;20093;-80
2021/08/11 12:10:51;;;;;;;2.80;2.60;;;;;;;31.65;34.40;96551.25;5306457;55;20127;-80
2021/08/11 12:15:53;;;;;;;3.08;2.75;;;;;;;32.30;38.78;96540.44;5306846;55;20106;-79
2021/08/11 12:21:02;;;;;;;4.20;2.80;;;;;;;32.39;34.31;96533.94;5307196;55;20163;-79
2021/08/11 12:26:07;;;;;;;4.72;2.90;;;;;;;31.01;34.69;96533.50;5309672;55;20195;-79
2021/08/11 12:31:13;;;;;;;5.15;3.47;;;;;;;30.07;37.24;96535.19;5310248;55;20101;-78
2021/08/11 12:36:21;;;;;;;3.53;3.22;;;;;;;31.97;35.61;96518.66;5308767;55;20106;-80
2021/08/11 12:41:25;;;;;;;6.50;3.22;;;;;;;32.07;35.05;96525.84;5309699;55;20944;-80
2021/08/11 12:46:43;;;;;;;4.70;3.42;;;;;;;33.41;33.24;96519.72;5308957;55;20170;-77
2021/08/11 12:52:18;;;;;;;3.67;3.35;;;;;;;33.23;32.04;96524.19;5307750;55;20122;-80
2021/08/11 12:57:26;;;;;;;5.97;3.50;;;;;;;32.68;34.46;96521.72;5297655;55;20664;-79
2021/08/11 13:02:30;;;;;;;5.97;3.40;;;;;;;31.00;36.92;96506.31;5308950;55;20137;-78
2021/08/11 13:07:33;;;;;;;4.25;3.85;;;;;;;31.40;34.27;96505.78;5311600;55;20110;-78
2021/08/11 13:12:35;;;;;;;4.45;3.80;;;;;;;31.54;34.10;96512.59;5308449;55;20145;-78
2021/08/11 13:17:48;;;;;;;3.55;3.25;;;;;;;32.31;34.37;96501.16;5308049;55;20633;-80
2021/08/11 13:22:57;;;;;;;3.60;3.30;;;;;;;31.65;33.65;96514.88;5310844;55;20124;-79
2021/08/11 13:28:03;;;;;;;4.45;3.30;;;;;;;31.99;32.21;96493.81;5310428;55;20114;-77
2021/08/11 13:33:06;;;;;;;4.13;3.40;;;;;;;30.97;36.24;96507.50;5305116;55;20124;-80
2021/08/11 13:38:10;;;;;;;3.88;3.15;;;;;;;30.46;36.94;96499.88;5309921;55;20734;-77
2021/08/11 13:43:13;;;;;;;3.47;3.10;;;;;;;30.95;36.39;96498.78;5310655;55;20106;-79
2021/08/11 13:48:15;;;;;;;4.38;3.33;;;;;;;30.79;35.29;96494.63;5311196;55;20119;-78
2021/08/11 13:53:17;;;;;;;3.33;2.97;;;;;;;31.36;36.64;96494.06;5308266;55;20119;-81
2021/08/11 13:58:20;;;;;;;4.28;3.25;;;;;;;31.19;34.58;96491.31;5305257;55;20105;-78
2021/08/11 14:03:22;;;;;;;4.05;3.55;;;;;;;32.21;34.25;96480.38;5313287;55;20119;-79
2021/08/11 14:08:25;;;;;;;3.50;3.03;;;;;;;31.79;34.94;96487.34;5313985;55;20110;-80
2021/08/11 14:13:27;;;;;;;4.20;2.70;;;;;;;31.54;34.45;96492.59;5312952;55;20127;-81
2021/08/11 14:18:30;;;;;;;5.13;3.17;;;;;;;32.45;34.31;96474.28;5307454;55;20202;-82
2021/08/11 14:23:32;;;;;;;3.80;2.97;;;;;;;32.53;33.30;96474.91;5313970;55;20127;-80
2021/08/11 14:28:35;;;;;;;7.10;3.20;;;;;;;31.96;34.49;96474.28;5312675;55;20128;-80
2021/08/11 14:33:37;;;;;;;3.03;2.80;;;;;;;30.69;36.55;96475.97;5313895;55;20137;-79
2021/08/11 14:38:40;;;;;;;4.80;2.85;;;;;;;31.73;37.72;96460.44;5312861;55;20218;-80
2021/08/11 14:43:42;;;;;;;5.65;2.65;;;;;;;32.13;35.98;96454.84;5312069;55;20663;-80
2021/08/11 14:48:45;;;;;;;5.72;3.22;;;;;;;32.42;33.66;96457.59;5310969;55;20106;-80
2021/08/11 14:53:47;;;;;;;3.10;2.85;;;;;;;32.21;33.93;96466.09;5301520;55;20575;-80
2021/08/11 14:58:49;;;;;;;5.38;3.17;;;;;;;32.13;34.62;96471.22;5310007;55;20119;-80
2021/08/11 15:03:52;;;;;;;3.53;3.20;;;;;;;31.30;32.91;96467.88;5309644;55;20123;-80
2021/08/11 15:08:54;;;;;;;4.38;3.15;;;;;;;31.52;37.34;96483.13;5311720;55;20123;-79
2021/08/11 15:13:56;;;;;;;6.32;3.20;;;;;;;30.96;35.59;96477.44;5303348;55;20114;-79
2021/08/11 15:18:59;;;;;;;4.43;3.67;;;;;;;30.63;35.16;96478.34;5312246;55;20119;-79
2021/08/11 15:24:01;;;;;;;4.05;3.53;;;;;;;29.87;37.04;96482.25;5312242;55;20123;-77
2021/08/11 15:29:04;;;;;;;5.20;3.53;;;;;;;29.88;36.11;96469.50;5317000;55;20119;-77
2021/08/11 15:34:07;;;;;;;3.63;3.28;;;;;;;29.58;37.30;96459.19;5332409;55;20135;-79
2021/08/11 15:39:09;;;;;;;3.55;3.20;;;;;;;29.62;36.82;96456.69;5327096;55;20105;-80
2021/08/11 15:44:12;;;;;;;8.27;3.53;;;;;;;29.06;37.98;96455.53;5306481;55;20154;-79
2021/08/11 15:49:14;;;;;;;3.53;3.03;;;;;;;29.11;39.24;96451.72;5312391;56;20119;-80
2021/08/11 15:54:17;;;;;;;5.15;3.40;;;;;;;29.16;39.45;96446.34;5301560;55;20129;-81
2021/08/11 15:59:19;;;;;;;4.20;3.10;;;;;;;29.44;39.42;96440.19;5290827;56;20115;-82
2021/08/11 16:04:22;;;;;;;3.83;3.25;;;;;;;29.10;39.12;96441.69;5293675;55;20124;-80
2021/08/11 16:09:24;;;;;;;3.58;3.28;;;;;;;28.79;39.01;96434.75;5311160;55;20110;-78
2021/08/11 16:14:27;;;;;;;3.33;3.13;;;;;;;28.80;39.17;96426.97;5315971;55;20127;-81
2021/08/11 16:19:30;;;;;;;5.57;3.50;;;;;;;28.84;38.64;96428.06;5320455;55;20123;-78
2021/08/11 16:24:32;;;;;;;5.55;3.38;;;;;;;28.63;38.63;96436.22;5322729;55;20128;-81
2021/08/11 16:29:35;;;;;;;3.20;2.92;;;;;;;28.51;39.97;96432.31;5310752;55;20132;-76
2021/08/11 16:34:37;;;;;;;3.50;3.20;;;;;;;28.08;40.51;96429.97;5309065;55;20233;-77
2021/08/11 16:39:40;;;;;;;3.40;3.10;;;;;;;28.13;40.29;96431.84;5308388;55;20114;-78
2021/08/11 16:44:42;;;;;;;5.57;4.03;;;;;;;28.24;40.23;96434.97;5308463;55;20132;-77
2021/08/11 16:49:44;;;;;;;6.63;3.65;;;;;;;28.25;40.98;96432.88;5308284;55;20128;-79
2021/08/11 16:54:47;;;;;;;4.43;3.63;;;;;;;28.07;40.38;96436.97;5307504;55;20127;-78
2021/08/11 16:59:50;;;;;;;4.80;3.60;;;;;;;28.05;40.54;96443.22;5307914;55;20124;-76
2021/08/11 17:04:53;;;;;;;3.20;3.00;;;;;;;27.92;40.79;96440.63;5307988;55;20160;-79
2021/08/11 17:09:55;;;;;;;8.65;3.33;;;;;;;27.78;41.40;96441.44;5307900;55;20123;-79
2021/08/11 17:15:00;;;;;;;4.78;3.45;;;;;;;27.63;41.66;96430.94;5309991;55;20132;-80
2021/08/11 17:20:07;;;;;;;4.00;3.40;;;;;;;27.45;41.52;96437.81;5308993;55;20119;-76
2021/08/11 17:25:10;;;;;;;3.83;3.47;;;;;;;27.24;42.92;96434.44;5309951;55;20110;-79
2021/08/11 17:30:13;;;;;;;4.03;3.40;;;;;;;27.17;45.54;96446.56;5305408;55;20123;-76
2021/08/11 17:35:15;;;;;;;4.03;3.65;;;;;;;27.02;44.09;96441.69;5307352;55;20654;-78
2021/08/11 17:40:18;;;;;;;8.25;3.50;;;;;;;26.86;45.94;96443.81;5307629;55;20218;-77
2021/08/11 17:45:21;;;;;;;6.13;3.80;;;;;;;26.71;47.86;96448.69;5307516;55;20119;-77
2021/08/11 17:50:23;;;;;;;3.80;3.33;;;;;;;26.41;49.30;96448.69;5307328;55;20662;-77
2021/08/11 17:55:26;;;;;;;5.55;3.63;;;;;;;26.28;53.91;96441.88;5306862;55;20114;-76
2021/08/11 18:00:28;;;;;;;4.30;3.72;;;;;;;26.36;55.73;96447.56;5306941;55;20126;-76
2021/08/11 18:05:34;;;;;;;8.77;3.40;;;;;;;26.24;56.24;96463.41;5299809;55;20569;-76
2021/08/11 18:10:37;;;;;;;4.53;3.50;;;;;;;25.97;55.98;96470.66;5308954;55;20132;-77
2021/08/11 18:15:39;;;;;;;9.15;4.07;;;;;;;25.79;55.43;96466.09;5309026;55;20693;-76
2021/08/11 18:20:42;;;;;;;4.85;3.63;;;;;;;25.46;58.46;96468.63;5307508;55;20106;-76
2021/08/11 18:25:44;;;;;;;12.52;5.68;;;;;;;24.92;61.15;96477.31;5306973;55;20679;-77
2021/08/11 18:30:46;;;;;;;12.80;4.88;;;;;;;24.71;60.32;96479.38;5307960;55;20114;-76
2021/08/11 18:35:49;;;;;;;10.10;5.60;;;;;;;24.59;60.75;96484.56;5307273;55;20115;-76
2021/08/11 18:40:51;;;;;;;6.60;4.05;;;;;;;24.18;63.22;96496.59;5307339;55;20128;-76
2021/08/11 18:45:54;;;;;;;12.40;4.70;;;;;;;23.70;66.26;96497.16;5306553;55;20109;-75
2021/08/11 18:50:57;;;;;;;8.95;4.88;;;;;;;23.49;67.39;96516.84;5305680;55;20110;-77
2021/08/11 18:55:59;;;;;;;5.95;4.18;;;;;;;23.39;68.59;96529.09;5306328;55;20118;-76
2021/08/11 19:01:03;;;;;;;11.02;4.20;;;;;;;23.29;68.58;96536.44;5306656;55;20150;-77
2021/08/11 19:06:07;;;;;;;7.65;4.00;;;;;;;23.27;69.24;96527.78;5306653;55;20119;-77
2021/08/11 19:11:09;;;;;;;3.95;3.65;;;;;;;23.62;67.27;96529.41;5306424;55;20119;-77
2021/08/11 19:16:13;;;;;;;5.95;3.47;;;;;;;23.34;68.35;96532.78;5306208;55;20119;-77
2021/08/11 19:21:16;;;;;;;5.25;3.60;;;;;;;23.04;69.79;96544.34;5299577;55;20245;-77
2021/08/11 19:26:19;;;;;;;6.32;3.90;;;;;;;22.89;70.71;96544.09;5285025;56;20195;-77
2021/08/11 19:31:21;;;;;;;6.20;4.10;;;;;;;22.91;70.93;96540.75;5284655;56;20200;-77
2021/08/11 19:36:23;;;;;;;4.30;3.85;;;;;;;22.96;69.02;96548.34;5283512;56;20137;-76
2021/08/11 19:41:26;;;;;;;6.38;3.38;;;;;;;22.80;69.13;96556.56;5283394;56;20115;-76
2021/08/11 19:46:29;;;;;;;4.03;3.63;;;;;;;22.64;69.75;96559.63;5290978;56;20115;-78
2021/08/11 19:51:31;;;;;;;8.07;3.25;;;;;;;22.08;71.95;96563.28;5305608;55;20208;-75
2021/08/11 19:56:34;;;;;;;6.40;3.80;;;;;;;21.85;73.34;96567.69;5303676;55;20888;-74
2021/08/11 20:01:36;;;;;;;7.00;3.75;;;;;;;21.82;74.06;96571.56;5300079;55;20124;-75
2021/08/11 20:06:39;;;;;;;8.82;4.03;;;;;;;21.91;74.37;96574.03;5303687;55;20199;-75
2021/08/11 20:11:42;;;;;;;9.93;3.40;;;;;;;21.95;73.86;96571.66;5303535;55;20114;-76
2021/08/11 20:16:44;;;;;;;4.30;3.53;;;;;;;21.73;74.68;96571.16;5304670;56;20145;-77
2021/08/11 20:21:47;;;;;;;5.85;3.70;;;;;;;21.54;75.60;96578.81;5304351;56;20157;-77
2021/08/11 20:26:49;;;;;;;3.50;3.20;;;;;;;21.60;75.04;96573.91;5303227;56;20110;-76
2021/08/11 20:31:51;;;;;;;5.20;3.38;;;;;;;21.35;76.82;96579.53;5303990;55;20628;-74
2021/08/11 20:36:54;;;;;;;9.43;4.50;;;;;;;21.07;77.46;96579.06;5302209;56;20721;-76
2021/08/11 20:41:56;;;;;;;3.85;3.40;;;;;;;21.17;77.34;96579.47;5302758;56;20114;-76
2021/08/11 20:46:58;;;;;;;5.25;3.50;;;;;;;21.08;78.23;96591.06;5314910;55;20211;-76
2021/08/11 20:52:01;;;;;;;9.45;3.83;;;;;;;20.92;78.91;96595.50;5332285;55;20669;-75
2021/08/11 20:57:04;;;;;;;5.68;4.05;;;;;;;20.84;79.18;96583.34;5316432;55;20127;-75
2021/08/11 21:02:06;;;;;;;5.28;3.58;;;;;;;20.82;78.96;96597.16;5306589;55;20150;-80
2021/08/11 21:07:09;;;;;;;6.18;3.78;;;;;;;20.62;79.82;96589.16;5312471;55;20106;-78
2021/08/11 21:12:11;;;;;;;4.03;3.60;;;;;;;20.58;80.11;96586.63;5309453;55;20110;-79
2021/08/11 21:17:14;;;;;;;4.63;3.72;;;;;;;20.52;80.62;96583.09;5302263;55;20123;-79
2021/08/11 21:22:16;;;;;;;3.97;3.40;;;;;;;20.32;81.07;96577.13;5297075;55;20137;-79
2021/08/11 21:27:18;;;;;;;5.65;3.60;;;;;;;20.30;81.58;96583.28;5301348;55;20128;-79
2021/08/11 21:32:21;;;;;;;5.38;3.58;;;;;;;20.21;81.99;96585.59;5311863;55;20699;-80
2021/08/11 21:37:24;;;;;;;6.95;3.80;;;;;;;20.23;81.08;96575.41;5306294;55;20683;-79
2021/08/11 21:42:26;;;;;;;6.28;3.53;;;;;;;20.22;81.12;96595.56;5295400;55;20111;-78
2021/08/11 21:47:29;;;;;;;4.10;3.30;;;;;;;20.26;80.43;96591.22;5302967;55;20136;-77
2021/08/11 21:52:31;;;;;;;5.25;3.38;;;;;;;20.04;80.90;96597.69;5302037;55;20128;-77
2021/08/11 21:57:33;;;;;;;4.72;3.78;;;;;;;19.95;81.11;96602.81;5301212;55;20620;-77
2021/08/11 22:02:36;;;;;;;4.78;3.33;;;;;;;19.86;82.12;96597.50;5302520;55;20123;-78
2021/08/11 22:07:38;;;;;;;3.85;3.45;;;;;;;19.70;82.45;96613.13;5303249;55;20114;-77
2021/08/11 22:12:41;;;;;;;4.85;3.03;;;;;;;19.54;83.08;96610.41;5297808;55;20609;-79
2021/08/11 22:17:43;;;;;;;4.18;3.22;;;;;;;19.58;83.11;96608.88;5305526;55;20679;-78
2021/08/11 22:22:47;;;;;;;6.85;3.38;;;;;;;19.39;83.87;96599.50;5305939;55;20105;-79
2021/08/11 22:27:50;;;;;;;4.88;3.20;;;;;;;19.20;83.85;96598.50;5304846;55;20645;-78
2021/08/11 22:32:52;;;;;;;3.85;3.08;;;;;;;19.10;84.19;96600.03;5313531;45;20116;-78
2021/08/11 22:37:55;;;;;;;5.32;3.60;;;;;;;19.25;83.42;96592.88;5268440;56;20226;-79
2021/08/11 22:42:57;;;;;;;3.60;3.20;;;;;;;19.06;83.65;96591.16;5264014;56;20111;-79
2021/08/11 22:48:00;;;;;;;3.53;3.22;;;;;;;19.02;83.95;96591.38;5272605;56;20635;-79
2021/08/11 22:53:02;;;;;;;4.07;3.28;;;;;;;18.85;84.84;96596.25;5272825;56;20120;-79
2021/08/11 22:58:05;;;;;;;3.70;3.20;;;;;;;18.92;84.32;96592.94;5265033;56;20126;-79
2021/08/11 23:03:07;;;;;;;3.67;2.90;;;;;;;18.87;84.49;96598.53;5253978;56;20112;-78
2021/08/11 23:08:10;;;;;;;8.15;3.20;;;;;;;19.03;84.41;96600.56;5274501;56;20121;-79
2021/08/11 23:13:12;;;;;;;4.18;3.38;;;;;;;18.77;84.46;96600.84;5276056;56;20142;-79
2021/08/11 23:18:15;;;;;;;4.55;3.55;;;;;;;18.53;85.10;96590.16;5276801;56;20738;-79
2021/08/11 23:23:17;;;;;;;5.47;3.85;;;;;;;18.40;86.07;96595.47;5275606;56;20577;-79
2021/08/11 23:28:19;;;;;;;3.25;3.03;;;;;;;18.37;85.60;96590.88;5275519;56;20124;-79
2021/08/11 23:33:22;;;;;;;5.50;3.38;;;;;;;18.44;85.46;96600.81;5275872;56;20120;-79
2021/08/11 23:38:24;;;;;;;3.53;3.08;;;;;;;18.52;85.22;96613.81;5275443;56;20137;-79
2021/08/11 23:43:26;;;;;;;3.78;3.15;;;;;;;18.30;85.58;96591.38;5272789;56;20129;-79
2021/08/11 23:48:28;;;;;;;4.22;3.50;;;;;;;18.51;85.25;96617.13;5273189;56;20713;-79
2021/08/11 23:53:31;;;;;;;4.22;3.10;;;;;;;18.45;85.02;96619.91;5273472;56;20112;-79
2021/08/11 23:58:33;;;;;;;3.63;3.33;;;;;;;18.41;85.56;96608.19;5273294;56;20129;-79
